sensor_id;sensor_type;location;lat;lon;timestamp;pressure;altitude;pressure_sealevel;temperature;humidity
26043;BME280;13818;52.156;5.382;2023-10-31T00:01:26;99350.28;;;10.55;100.00
26043;BME280;13818;52.156;5.382;2023-10-31T00:03:53;99360.22;;;10.53;100.00
26043;BME280;13818;52.156;5.382;2023-10-31T00:06:19;99361.06;;;10.53;100.00
26043;BME280;13818;52.156;5.382;2023-10-31T00:08:45;99365.44;;;10.54;100.00
26043;BME280;13818;52.156;5.382;2023-10-31T00:11:12;99353.41;;;10.62;100.00
26043;BME280;13818;52.156;5.382;2023-10-31T00:13:38;99366.31;;;10.68;100.00
26043;BME280;13818;52.156;5.382;2023-10-31T00:16:05;99369.50;;;10.73;100.00
26043;BME280;13818;52.156;5.382;2023-10-31T00:18:33;99373.75;;;10.76;100.00
26043;BME280;13818;52.156;5.382;2023-10-31T00:20:59;99366.91;;;10.84;100.00
26043;BME280;13818;52.156;5.382;2023-10-31T00:23:26;99367.63;;;10.86;100.00
26043;BME280;13818;52.156;5.382;2023-10-31T00:25:53;99374.69;;;10.87;100.00
26043;BME280;13818;52.156;5.382;2023-10-31T00:28:19;99376.72;;;10.84;100.00
26043;BME280;13818;52.156;5.382;2023-10-31T00:30:45;99379.38;;;10.84;100.00
26043;BME280;13818;52.156;5.382;2023-10-31T00:33:12;99380.56;;;10.67;100.00
26043;BME280;13818;52.156;5.382;2023-10-31T00:35:40;99375.00;;;10.70;100.00
26043;BME280;13818;52.156;5.382;2023-10-31T00:38:06;99379.91;;;10.76;100.00
26043;BME280;13818;52.156;5.382;2023-10-31T00:40:32;99379.72;;;10.79;100.00
26043;BME280;13818;52.156;5.382;2023-10-31T00:42:59;99376.59;;;10.85;100.00
26043;BME280;13818;52.156;5.382;2023-10-31T00:45:26;99383.88;;;10.83;100.00
26043;BME280;13818;52.156;5.382;2023-10-31T00:47:52;99380.84;;;10.88;100.00
26043;BME280;13818;52.156;5.382;2023-10-31T00:50:19;99385.47;;;10.86;100.00
26043;BME280;13818;52.156;5.382;2023-10-31T00:52:46;99387.16;;;10.87;100.00
26043;BME280;13818;52.156;5.382;2023-10-31T00:55:13;99387.47;;;10.82;100.00
26043;BME280;13818;52.156;5.382;2023-10-31T00:57:39;99388.44;;;10.81;100.00
26043;BME280;13818;52.156;5.382;2023-10-31T01:00:08;99388.31;;;10.83;100.00
26043;BME280;13818;52.156;5.382;2023-10-31T01:02:35;99394.41;;;10.85;100.00
26043;BME280;13818;52.156;5.382;2023-10-31T01:05:01;99404.22;;;10.84;100.00
26043;BME280;13818;52.156;5.382;2023-10-31T01:07:28;99410.94;;;10.77;100.00
26043;BME280;13818;52.156;5.382;2023-10-31T01:09:56;99411.91;;;10.63;100.00
26043;BME280;13818;52.156;5.382;2023-10-31T01:12:22;99412.31;;;10.57;100.00
26043;BME280;13818;52.156;5.382;2023-10-31T01:14:48;99409.25;;;10.50;100.00
26043;BME280;13818;52.156;5.382;2023-10-31T01:17:15;99412.00;;;10.49;100.00
26043;BME280;13818;52.156;5.382;2023-10-31T01:19:41;99416.78;;;10.44;100.00
26043;BME280;13818;52.156;5.382;2023-10-31T01:22:08;99408.69;;;10.45;100.00
26043;BME280;13818;52.156;5.382;2023-10-31T01:24:35;99423.94;;;10.43;100.00
26043;BME280;13818;52.156;5.382;2023-10-31T01:27:02;99423.28;;;10.39;100.00
26043;BME280;13818;52.156;5.382;2023-10-31T01:29:29;99441.81;;;10.41;100.00
26043;BME280;13818;52.156;5.382;2023-10-31T01:31:55;99435.31;;;10.45;100.00
26043;BME280;13818;52.156;5.382;2023-10-31T01:34:22;99424.03;;;10.54;100.00
26043;BME280;13818;52.156;5.382;2023-10-31T01:36:48;99444.28;;;10.57;100.00
26043;BME280;13818;52.156;5.382;2023-10-31T01:39:15;99441.63;;;10.57;100.00
26043;BME280;13818;52.156;5.382;2023-10-31T01:41:41;99438.53;;;10.50;100.00
26043;BME280;13818;52.156;5.382;2023-10-31T01:44:09;99444.50;;;10.54;100.00
26043;BME280;13818;52.156;5.382;2023-10-31T01:46:36;99447.81;;;10.57;100.00
26043;BME280;13818;52.156;5.382;2023-10-31T01:49:02;99448.69;;;10.71;100.00
26043;BME280;13818;52.156;5.382;2023-10-31T01:51:29;99450.16;;;10.75;100.00
26043;BME280;13818;52.156;5.382;2023-10-31T01:53:56;99440.91;;;10.81;100.00
26043;BME280;13818;52.156;5.382;2023-10-31T01:56:23;99444.94;;;10.86;100.00
26043;BME280;13818;52.156;5.382;2023-10-31T01:58:52;99449.97;;;10.91;100.00
26043;BME280;13818;52.156;5.382;2023-10-31T02:01:20;99446.44;;;10.90;100.00
26043;BME280;13818;52.156;5.382;2023-10-31T02:03:47;99444.50;;;10.93;100.00
26043;BME280;13818;52.156;5.382;2023-10-31T02:06:14;99438.44;;;11.03;100.00
26043;BME280;13818;52.156;5.382;2023-10-31T02:08:41;99438.75;;;10.86;100.00
26043;BME280;13818;52.156;5.382;2023-10-31T02:11:07;99436.41;;;10.81;100.00
26043;BME280;13818;52.156;5.382;2023-10-31T02:13:35;99439.19;;;10.93;100.00
26043;BME280;13818;52.156;5.382;2023-10-31T02:16:02;99435.88;;;11.02;100.00
26043;BME280;13818;52.156;5.382;2023-10-31T02:18:30;99441.09;;;11.03;100.00
26043;BME280;13818;52.156;5.382;2023-10-31T02:20:57;99440.56;;;11.11;100.00
26043;BME280;13818;52.156;5.382;2023-10-31T02:23:24;99444.94;;;11.12;100.00
26043;BME280;13818;52.156;5.382;2023-10-31T02:25:51;99435.53;;;11.06;100.00
26043;BME280;13818;52.156;5.382;2023-10-31T02:28:17;99440.31;;;11.14;100.00
26043;BME280;13818;52.156;5.382;2023-10-31T02:30:44;99441.09;;;11.16;100.00
26043;BME280;13818;52.156;5.382;2023-10-31T02:33:11;99442.56;;;11.20;100.00
26043;BME280;13818;52.156;5.382;2023-10-31T02:35:37;99441.41;;;11.12;100.00
26043;BME280;13818;52.156;5.382;2023-10-31T02:38:04;99437.78;;;11.00;100.00
26043;BME280;13818;52.156;5.382;2023-10-31T02:40:31;99441.66;;;10.96;100.00
26043;BME280;13818;52.156;5.382;2023-10-31T02:42:58;99458.38;;;10.85;100.00
26043;BME280;13818;52.156;5.382;2023-10-31T02:45:24;99448.38;;;10.76;100.00
26043;BME280;13818;52.156;5.382;2023-10-31T02:47:51;99457.00;;;10.79;100.00
26043;BME280;13818;52.156;5.382;2023-10-31T02:50:17;99464.88;;;10.81;100.00
26043;BME280;13818;52.156;5.382;2023-10-31T02:52:43;99457.19;;;10.89;100.00
26043;BME280;13818;52.156;5.382;2023-10-31T02:55:10;99457.41;;;10.86;100.00
26043;BME280;13818;52.156;5.382;2023-10-31T02:57:38;99465.41;;;10.86;100.00
26043;BME280;13818;52.156;5.382;2023-10-31T03:00:05;99459.03;;;10.88;100.00
26043;BME280;13818;52.156;5.382;2023-10-31T03:02:32;99466.38;;;10.85;100.00
26043;BME280;13818;52.156;5.382;2023-10-31T03:04:58;99460.28;;;10.83;100.00
26043;BME280;13818;52.156;5.382;2023-10-31T03:07:25;99469.56;;;10.77;100.00
26043;BME280;13818;52.156;5.382;2023-10-31T03:09:53;99475.63;;;10.66;100.00
26043;BME280;13818;52.156;5.382;2023-10-31T03:12:22;99482.25;;;10.61;100.00
26043;BME280;13818;52.156;5.382;2023-10-31T03:14:50;99482.47;;;10.70;100.00
26043;BME280;13818;52.156;5.382;2023-10-31T03:17:17;99497.19;;;10.76;100.00
26043;BME280;13818;52.156;5.382;2023-10-31T03:19:43;99492.50;;;10.80;100.00
26043;BME280;13818;52.156;5.382;2023-10-31T03:22:09;99502.94;;;10.83;100.00
26043;BME280;13818;52.156;5.382;2023-10-31T03:24:36;99504.75;;;10.82;100.00
26043;BME280;13818;52.156;5.382;2023-10-31T03:27:02;99508.91;;;10.86;100.00
26043;BME280;13818;52.156;5.382;2023-10-31T03:29:29;99502.44;;;10.90;100.00
26043;BME280;13818;52.156;5.382;2023-10-31T03:31:57;99516.59;;;10.91;100.00
26043;BME280;13818;52.156;5.382;2023-10-31T03:34:23;99527.56;;;10.86;100.00
26043;BME280;13818;52.156;5.382;2023-10-31T03:36:49;99522.69;;;10.93;100.00
26043;BME280;13818;52.156;5.382;2023-10-31T03:39:16;99537.09;;;10.90;100.00
26043;BME280;13818;52.156;5.382;2023-10-31T03:41:42;99535.91;;;10.95;100.00
26043;BME280;13818;52.156;5.382;2023-10-31T03:44:09;99533.78;;;11.00;100.00
26043;BME280;13818;52.156;5.382;2023-10-31T03:46:35;99539.94;;;11.00;100.00
26043;BME280;13818;52.156;5.382;2023-10-31T03:49:03;99551.69;;;10.98;100.00
26043;BME280;13818;52.156;5.382;2023-10-31T03:51:32;99555.63;;;11.05;100.00
26043;BME280;13818;52.156;5.382;2023-10-31T03:53:59;99553.19;;;11.02;100.00
26043;BME280;13818;52.156;5.382;2023-10-31T03:56:25;99557.53;;;11.03;100.00
26043;BME280;13818;52.156;5.382;2023-10-31T03:58:52;99568.53;;;10.98;100.00
26043;BME280;13818;52.156;5.382;2023-10-31T04:01:18;99563.84;;;11.02;100.00
26043;BME280;13818;52.156;5.382;2023-10-31T04:03:45;99565.47;;;11.04;100.00
26043;BME280;13818;52.156;5.382;2023-10-31T04:06:13;99569.56;;;10.83;100.00
26043;BME280;13818;52.156;5.382;2023-10-31T04:08:39;99574.59;;;10.87;100.00
26043;BME280;13818;52.156;5.382;2023-10-31T04:11:06;99570.31;;;10.85;100.00
26043;BME280;13818;52.156;5.382;2023-10-31T04:13:32;99577.13;;;10.76;100.00
26043;BME280;13818;52.156;5.382;2023-10-31T04:15:59;99578.63;;;10.80;100.00
26043;BME280;13818;52.156;5.382;2023-10-31T04:18:25;99575.00;;;10.81;100.00
26043;BME280;13818;52.156;5.382;2023-10-31T04:20:52;99580.00;;;10.73;100.00
26043;BME280;13818;52.156;5.382;2023-10-31T04:23:19;99586.41;;;10.70;100.00
26043;BME280;13818;52.156;5.382;2023-10-31T04:25:46;99586.41;;;10.70;100.00
26043;BME280;13818;52.156;5.382;2023-10-31T04:28:12;99594.19;;;10.73;100.00
26043;BME280;13818;52.156;5.382;2023-10-31T04:30:40;99594.41;;;10.70;100.00
26043;BME280;13818;52.156;5.382;2023-10-31T04:33:06;99589.19;;;10.82;100.00
26043;BME280;13818;52.156;5.382;2023-10-31T04:35:32;99596.88;;;10.86;100.00
26043;BME280;13818;52.156;5.382;2023-10-31T04:37:59;99599.00;;;10.81;100.00
26043;BME280;13818;52.156;5.382;2023-10-31T04:40:27;99597.50;;;10.90;100.00
26043;BME280;13818;52.156;5.382;2023-10-31T04:42:54;99598.69;;;10.86;100.00
26043;BME280;13818;52.156;5.382;2023-10-31T04:45:20;99598.16;;;10.81;100.00
26043;BME280;13818;52.156;5.382;2023-10-31T04:47:46;99600.16;;;10.77;100.00
26043;BME280;13818;52.156;5.382;2023-10-31T04:50:15;99605.09;;;10.83;100.00
26043;BME280;13818;52.156;5.382;2023-10-31T04:52:41;99599.75;;;10.83;100.00
26043;BME280;13818;52.156;5.382;2023-10-31T04:55:08;99604.03;;;10.86;100.00
26043;BME280;13818;52.156;5.382;2023-10-31T04:57:36;99603.91;;;10.87;100.00
26043;BME280;13818;52.156;5.382;2023-10-31T05:00:03;99605.81;;;10.85;100.00
26043;BME280;13818;52.156;5.382;2023-10-31T05:02:31;99609.47;;;10.84;100.00
26043;BME280;13818;52.156;5.382;2023-10-31T05:04:58;99614.38;;;10.90;100.00
26043;BME280;13818;52.156;5.382;2023-10-31T05:07:24;99617.59;;;10.96;100.00
26043;BME280;13818;52.156;5.382;2023-10-31T05:09:51;99614.06;;;10.95;100.00
26043;BME280;13818;52.156;5.382;2023-10-31T05:12:17;99615.88;;;10.95;100.00
26043;BME280;13818;52.156;5.382;2023-10-31T05:14:45;99624.06;;;10.91;100.00
26043;BME280;13818;52.156;5.382;2023-10-31T05:17:11;99629.81;;;10.85;100.00
26043;BME280;13818;52.156;5.382;2023-10-31T05:19:38;99631.94;;;10.80;100.00
26043;BME280;13818;52.156;5.382;2023-10-31T05:22:04;99634.28;;;10.85;100.00
26043;BME280;13818;52.156;5.382;2023-10-31T05:24:30;99632.53;;;10.71;100.00
26043;BME280;13818;52.156;5.382;2023-10-31T05:26:57;99633.31;;;10.73;100.00
26043;BME280;13818;52.156;5.382;2023-10-31T05:29:24;99634.00;;;10.89;100.00
26043;BME280;13818;52.156;5.382;2023-10-31T05:31:51;99636.13;;;10.84;100.00
26043;BME280;13818;52.156;5.382;2023-10-31T05:34:19;99638.00;;;10.82;100.00
26043;BME280;13818;52.156;5.382;2023-10-31T05:36:46;99644.19;;;10.83;100.00
26043;BME280;13818;52.156;5.382;2023-10-31T05:39:12;99655.72;;;10.83;100.00
26043;BME280;13818;52.156;5.382;2023-10-31T05:41:40;99657.44;;;10.84;100.00
26043;BME280;13818;52.156;5.382;2023-10-31T05:44:07;99654.97;;;10.81;100.00
26043;BME280;13818;52.156;5.382;2023-10-31T05:46:37;99654.84;;;10.83;100.00
26043;BME280;13818;52.156;5.382;2023-10-31T05:49:06;99659.03;;;10.87;100.00
26043;BME280;13818;52.156;5.382;2023-10-31T05:51:32;99661.78;;;10.85;100.00
26043;BME280;13818;52.156;5.382;2023-10-31T05:54:00;99659.22;;;10.84;100.00
26043;BME280;13818;52.156;5.382;2023-10-31T05:56:27;99662.22;;;10.79;100.00
26043;BME280;13818;52.156;5.382;2023-10-31T05:58:53;99660.81;;;10.73;100.00
26043;BME280;13818;52.156;5.382;2023-10-31T06:01:19;99665.72;;;10.80;100.00
26043;BME280;13818;52.156;5.382;2023-10-31T06:03:46;99664.06;;;10.91;100.00
26043;BME280;13818;52.156;5.382;2023-10-31T06:06:13;99668.53;;;10.91;100.00
26043;BME280;13818;52.156;5.382;2023-10-31T06:08:41;99680.59;;;10.97;100.00
26043;BME280;13818;52.156;5.382;2023-10-31T06:11:08;99678.81;;;10.97;100.00
26043;BME280;13818;52.156;5.382;2023-10-31T06:13:34;99681.16;;;11.02;100.00
26043;BME280;13818;52.156;5.382;2023-10-31T06:16:00;99684.69;;;11.02;100.00
26043;BME280;13818;52.156;5.382;2023-10-31T06:18:27;99689.78;;;11.05;100.00
26043;BME280;13818;52.156;5.382;2023-10-31T06:20:54;99690.00;;;11.02;100.00
26043;BME280;13818;52.156;5.382;2023-10-31T06:23:22;99687.03;;;11.07;100.00
26043;BME280;13818;52.156;5.382;2023-10-31T06:25:48;99684.06;;;11.12;100.00
26043;BME280;13818;52.156;5.382;2023-10-31T06:28:14;99695.13;;;11.05;100.00
26043;BME280;13818;52.156;5.382;2023-10-31T06:30:41;99700.06;;;11.12;100.00
26043;BME280;13818;52.156;5.382;2023-10-31T06:33:07;99695.44;;;11.01;100.00
26043;BME280;13818;52.156;5.382;2023-10-31T06:35:35;99699.38;;;10.95;100.00
26043;BME280;13818;52.156;5.382;2023-10-31T06:38:02;99703.13;;;11.05;100.00
26043;BME280;13818;52.156;5.382;2023-10-31T06:40:30;99705.16;;;11.02;100.00
26043;BME280;13818;52.156;5.382;2023-10-31T06:42:56;99705.16;;;11.02;100.00
26043;BME280;13818;52.156;5.382;2023-10-31T06:45:24;99710.38;;;11.03;100.00
26043;BME280;13818;52.156;5.382;2023-10-31T06:47:50;99716.03;;;10.99;100.00
26043;BME280;13818;52.156;5.382;2023-10-31T06:50:17;99717.47;;;10.90;100.00
26043;BME280;13818;52.156;5.382;2023-10-31T06:52:43;99726.91;;;10.96;100.00
26043;BME280;13818;52.156;5.382;2023-10-31T06:55:10;99725.50;;;11.03;100.00
26043;BME280;13818;52.156;5.382;2023-10-31T06:57:38;99721.16;;;11.02;100.00
26043;BME280;13818;52.156;5.382;2023-10-31T07:00:05;99720.94;;;11.05;100.00
26043;BME280;13818;52.156;5.382;2023-10-31T07:02:34;99721.19;;;11.15;100.00
26043;BME280;13818;52.156;5.382;2023-10-31T07:05:01;99724.53;;;11.18;100.00
26043;BME280;13818;52.156;5.382;2023-10-31T07:07:28;99721.19;;;11.15;100.00
26043;BME280;13818;52.156;5.382;2023-10-31T07:09:54;99726.72;;;11.12;100.00
26043;BME280;13818;52.156;5.382;2023-10-31T07:12:21;99731.88;;;11.15;100.00
26043;BME280;13818;52.156;5.382;2023-10-31T07:14:49;99737.09;;;11.16;100.00
26043;BME280;13818;52.156;5.382;2023-10-31T07:17:15;99743.47;;;11.14;100.00
26043;BME280;13818;52.156;5.382;2023-10-31T07:19:42;99746.41;;;11.23;100.00
26043;BME280;13818;52.156;5.382;2023-10-31T07:22:08;99752.63;;;11.37;100.00
26043;BME280;13818;52.156;5.382;2023-10-31T07:24:34;99750.41;;;11.44;100.00
26043;BME280;13818;52.156;5.382;2023-10-31T07:27:01;99764.00;;;11.66;100.00
26043;BME280;13818;52.156;5.382;2023-10-31T07:29:27;99762.00;;;11.70;100.00
26043;BME280;13818;52.156;5.382;2023-10-31T07:31:55;99770.19;;;11.80;100.00
26043;BME280;13818;52.156;5.382;2023-10-31T07:34:22;99769.63;;;12.02;100.00
26043;BME280;13818;52.156;5.382;2023-10-31T07:36:48;99777.31;;;12.07;100.00
26043;BME280;13818;52.156;5.382;2023-10-31T07:39:14;99777.50;;;12.16;100.00
26043;BME280;13818;52.156;5.382;2023-10-31T07:41:41;99770.38;;;12.17;100.00
26043;BME280;13818;52.156;5.382;2023-10-31T07:44:07;99779.13;;;12.06;100.00
26043;BME280;13818;52.156;5.382;2023-10-31T07:46:34;99786.50;;;12.15;100.00
26043;BME280;13818;52.156;5.382;2023-10-31T07:49:02;99786.50;;;12.28;100.00
26043;BME280;13818;52.156;5.382;2023-10-31T07:51:29;99780.94;;;12.31;100.00
26043;BME280;13818;52.156;5.382;2023-10-31T07:53:55;99790.34;;;12.37;100.00
26043;BME280;13818;52.156;5.382;2023-10-31T07:56:23;99792.06;;;12.38;100.00
26043;BME280;13818;52.156;5.382;2023-10-31T07:58:50;99800.81;;;12.40;100.00
26043;BME280;13818;52.156;5.382;2023-10-31T08:01:17;99798.22;;;12.51;100.00
26043;BME280;13818;52.156;5.382;2023-10-31T08:03:43;99791.84;;;12.41;100.00
26043;BME280;13818;52.156;5.382;2023-10-31T08:06:11;99793.13;;;12.48;100.00
26043;BME280;13818;52.156;5.382;2023-10-31T08:08:37;99796.19;;;12.55;100.00
26043;BME280;13818;52.156;5.382;2023-10-31T08:11:07;99803.25;;;12.56;100.00
26043;BME280;13818;52.156;5.382;2023-10-31T08:13:33;99804.34;;;12.53;100.00
26043;BME280;13818;52.156;5.382;2023-10-31T08:16:00;99804.53;;;12.63;100.00
26043;BME280;13818;52.156;5.382;2023-10-31T08:18:26;99793.50;;;12.68;100.00
26043;BME280;13818;52.156;5.382;2023-10-31T08:20:53;99800.75;;;12.79;100.00
26043;BME280;13818;52.156;5.382;2023-10-31T08:23:20;99806.03;;;12.55;100.00
26043;BME280;13818;52.156;5.382;2023-10-31T08:25:47;99803.34;;;12.67;100.00
26043;BME280;13818;52.156;5.382;2023-10-31T08:28:14;99803.56;;;12.64;100.00
26043;BME280;13818;52.156;5.382;2023-10-31T08:30:40;99806.13;;;12.66;100.00
26043;BME280;13818;52.156;5.382;2023-10-31T08:33:06;99809.41;;;12.82;100.00
26043;BME280;13818;52.156;5.382;2023-10-31T08:35:33;99807.53;;;12.59;100.00
26043;BME280;13818;52.156;5.382;2023-10-31T08:38:00;99812.66;;;12.62;100.00
26043;BME280;13818;52.156;5.382;2023-10-31T08:40:28;99818.59;;;12.78;100.00
26043;BME280;13818;52.156;5.382;2023-10-31T08:42:54;99822.47;;;12.74;100.00
26043;BME280;13818;52.156;5.382;2023-10-31T08:45:21;99826.19;;;12.84;100.00
26043;BME280;13818;52.156;5.382;2023-10-31T08:47:47;99822.50;;;12.98;100.00
26043;BME280;13818;52.156;5.382;2023-10-31T08:50:15;99823.78;;;13.06;100.00
26043;BME280;13818;52.156;5.382;2023-10-31T08:52:41;99828.78;;;12.86;100.00
26043;BME280;13818;52.156;5.382;2023-10-31T08:55:08;99834.41;;;12.94;100.00
26043;BME280;13818;52.156;5.382;2023-10-31T08:57:36;99839.44;;;12.99;100.00
26043;BME280;13818;52.156;5.382;2023-10-31T09:00:03;99838.03;;;13.06;100.00
26043;BME280;13818;52.156;5.382;2023-10-31T09:02:30;99843.97;;;13.10;100.00
26043;BME280;13818;52.156;5.382;2023-10-31T09:04:57;99843.91;;;13.11;100.00
26043;BME280;13818;52.156;5.382;2023-10-31T09:07:23;99855.41;;;13.25;100.00
26043;BME280;13818;52.156;5.382;2023-10-31T09:09:51;99856.78;;;13.30;100.00
26043;BME280;13818;52.156;5.382;2023-10-31T09:12:17;99863.81;;;13.44;100.00
26043;BME280;13818;52.156;5.382;2023-10-31T09:14:45;99852.53;;;13.52;100.00
26043;BME280;13818;52.156;5.382;2023-10-31T09:17:11;99865.53;;;13.45;100.00
26043;BME280;13818;52.156;5.382;2023-10-31T09:19:38;99866.91;;;13.51;100.00
26043;BME280;13818;52.156;5.382;2023-10-31T09:22:04;99874.13;;;13.62;100.00
26043;BME280;13818;52.156;5.382;2023-10-31T09:24:31;99883.91;;;13.50;100.00
26043;BME280;13818;52.156;5.382;2023-10-31T09:26:57;99880.56;;;13.59;100.00
26043;BME280;13818;52.156;5.382;2023-10-31T09:29:24;99885.56;;;13.64;100.00
26043;BME280;13818;52.156;5.382;2023-10-31T09:31:51;99877.59;;;13.75;100.00
26043;BME280;13818;52.156;5.382;2023-10-31T09:34:18;99879.94;;;13.80;100.00
26043;BME280;13818;52.156;5.382;2023-10-31T09:36:44;99892.38;;;13.81;100.00
26043;BME280;13818;52.156;5.382;2023-10-31T09:39:11;99891.72;;;13.77;100.00
26043;BME280;13818;52.156;5.382;2023-10-31T09:41:37;99888.84;;;13.92;100.00
26043;BME280;13818;52.156;5.382;2023-10-31T09:44:04;99885.50;;;14.01;100.00
26043;BME280;13818;52.156;5.382;2023-10-31T09:46:31;99896.94;;;14.03;100.00
26043;BME280;13818;52.156;5.382;2023-10-31T09:48:59;99889.94;;;14.13;100.00
26043;BME280;13818;52.156;5.382;2023-10-31T09:51:26;99897.22;;;14.11;100.00
26043;BME280;13818;52.156;5.382;2023-10-31T09:53:54;99903.84;;;14.19;100.00
26043;BME280;13818;52.156;5.382;2023-10-31T09:56:21;99904.28;;;14.12;100.00
26043;BME280;13818;52.156;5.382;2023-10-31T09:58:48;99914.03;;;14.13;100.00
26043;BME280;13818;52.156;5.382;2023-10-31T10:01:15;99917.34;;;14.17;100.00
26043;BME280;13818;52.156;5.382;2023-10-31T10:03:42;99926.22;;;14.18;100.00
26043;BME280;13818;52.156;5.382;2023-10-31T10:06:09;99927.28;;;14.39;100.00
26043;BME280;13818;52.156;5.382;2023-10-31T10:08:37;99924.59;;;14.39;100.00
26043;BME280;13818;52.156;5.382;2023-10-31T10:11:04;99933.25;;;14.43;100.00
26043;BME280;13818;52.156;5.382;2023-10-31T10:13:31;99930.59;;;14.54;100.00
26043;BME280;13818;52.156;5.382;2023-10-31T10:15:57;99927.97;;;14.66;100.00
26043;BME280;13818;52.156;5.382;2023-10-31T10:18:25;99932.50;;;14.76;100.00
26043;BME280;13818;52.156;5.382;2023-10-31T10:20:55;99940.31;;;14.79;100.00
26043;BME280;13818;52.156;5.382;2023-10-31T10:23:24;99938.38;;;14.82;100.00
26043;BME280;13818;52.156;5.382;2023-10-31T10:25:51;99945.91;;;14.65;100.00
26043;BME280;13818;52.156;5.382;2023-10-31T10:28:17;99943.72;;;14.82;100.00
26043;BME280;13818;52.156;5.382;2023-10-31T10:30:45;99950.03;;;14.69;100.00
26043;BME280;13818;52.156;5.382;2023-10-31T10:33:12;99949.06;;;14.70;100.00
26043;BME280;13818;52.156;5.382;2023-10-31T10:35:38;99943.75;;;14.57;100.00
26043;BME280;13818;52.156;5.382;2023-10-31T10:38:06;99948.28;;;14.57;100.00
26043;BME280;13818;52.156;5.382;2023-10-31T10:40:37;99950.47;;;14.63;100.00
26043;BME280;13818;52.156;5.382;2023-10-31T10:43:06;99945.53;;;14.70;100.00
26043;BME280;13818;52.156;5.382;2023-10-31T10:45:34;99950.28;;;14.77;100.00
26043;BME280;13818;52.156;5.382;2023-10-31T10:48:05;99953.72;;;14.79;100.00
26043;BME280;13818;52.156;5.382;2023-10-31T10:50:34;99955.91;;;14.86;100.00
26043;BME280;13818;52.156;5.382;2023-10-31T10:53:12;99954.22;;;14.96;100.00
26043;BME280;13818;52.156;5.382;2023-10-31T10:55:45;99948.84;;;14.96;100.00
26043;BME280;13818;52.156;5.382;2023-10-31T10:58:19;99960.34;;;15.21;100.00
26043;BME280;13818;52.156;5.382;2023-10-31T11:00:49;99952.00;;;15.35;100.00
26043;BME280;13818;52.156;5.382;2023-10-31T11:03:17;99957.66;;;15.32;100.00
26043;BME280;13818;52.156;5.382;2023-10-31T11:05:45;99950.19;;;15.36;100.00
26043;BME280;13818;52.156;5.382;2023-10-31T11:08:12;99951.16;;;15.35;100.00
26043;BME280;13818;52.156;5.382;2023-10-31T11:10:41;99953.13;;;15.33;100.00
26043;BME280;13818;52.156;5.382;2023-10-31T11:13:08;99951.28;;;15.44;100.00
26043;BME280;13818;52.156;5.382;2023-10-31T11:15:36;99955.44;;;15.49;100.00
26043;BME280;13818;52.156;5.382;2023-10-31T11:18:04;99960.66;;;15.50;100.00
26043;BME280;13818;52.156;5.382;2023-10-31T11:20:31;99964.72;;;15.33;100.00
26043;BME280;13818;52.156;5.382;2023-10-31T11:22:57;99974.22;;;15.49;100.00
26043;BME280;13818;52.156;5.382;2023-10-31T11:25:25;99965.19;;;15.61;100.00
26043;BME280;13818;52.156;5.382;2023-10-31T11:27:53;99973.81;;;15.76;100.00
26043;BME280;13818;52.156;5.382;2023-10-31T11:30:27;99970.03;;;15.78;100.00
26043;BME280;13818;52.156;5.382;2023-10-31T11:32:55;99971.25;;;15.63;100.00
26043;BME280;13818;52.156;5.382;2023-10-31T11:35:22;99975.63;;;15.87;100.00
26043;BME280;13818;52.156;5.382;2023-10-31T11:37:48;99974.28;;;15.81;100.00
26043;BME280;13818;52.156;5.382;2023-10-31T11:40:20;99974.75;;;15.98;100.00
26043;BME280;13818;52.156;5.382;2023-10-31T11:42:49;99973.34;;;16.15;100.00
26043;BME280;13818;52.156;5.382;2023-10-31T11:45:33;99972.22;;;15.96;100.00
26043;BME280;13818;52.156;5.382;2023-10-31T11:47:59;99981.91;;;16.08;100.00
26043;BME280;13818;52.156;5.382;2023-10-31T11:50:26;99983.63;;;16.09;100.00
26043;BME280;13818;52.156;5.382;2023-10-31T11:53:03;99977.84;;;15.82;100.00
26043;BME280;13818;52.156;5.382;2023-10-31T11:55:32;99965.50;;;15.90;100.00
26043;BME280;13818;52.156;5.382;2023-10-31T11:58:12;99977.72;;;15.83;100.00
26043;BME280;13818;52.156;5.382;2023-10-31T12:00:42;99987.81;;;16.02;100.00
26043;BME280;13818;52.156;5.382;2023-10-31T12:03:09;99987.34;;;15.97;100.00
26043;BME280;13818;52.156;5.382;2023-10-31T12:05:36;99983.56;;;15.88;100.00
26043;BME280;13818;52.156;5.382;2023-10-31T12:08:02;99988.22;;;15.75;100.00
26043;BME280;13818;52.156;5.382;2023-10-31T12:10:29;99982.00;;;15.63;100.00
26043;BME280;13818;52.156;5.382;2023-10-31T12:12:57;99989.59;;;15.35;100.00
26043;BME280;13818;52.156;5.382;2023-10-31T12:15:24;99990.69;;;15.44;100.00
26043;BME280;13818;52.156;5.382;2023-10-31T12:17:52;99987.28;;;15.53;100.00
26043;BME280;13818;52.156;5.382;2023-10-31T12:20:18;99987.16;;;15.43;100.00
26043;BME280;13818;52.156;5.382;2023-10-31T12:22:45;99993.25;;;15.34;100.00
26043;BME280;13818;52.156;5.382;2023-10-31T12:25:11;100009.63;;;15.42;100.00
26043;BME280;13818;52.156;5.382;2023-10-31T12:27:45;100011.47;;;15.42;100.00
26043;BME280;13818;52.156;5.382;2023-10-31T12:30:12;100005.84;;;15.34;100.00
26043;BME280;13818;52.156;5.382;2023-10-31T12:32:40;100020.72;;;15.26;100.00
26043;BME280;13818;52.156;5.382;2023-10-31T12:35:08;100014.25;;;15.18;100.00
26043;BME280;13818;52.156;5.382;2023-10-31T12:37:42;100033.75;;;14.97;100.00
26043;BME280;13818;52.156;5.382;2023-10-31T12:40:10;100034.72;;;14.96;100.00
26043;BME280;13818;52.156;5.382;2023-10-31T12:42:36;100033.88;;;14.95;100.00
26043;BME280;13818;52.156;5.382;2023-10-31T12:45:04;100040.19;;;14.94;100.00
26043;BME280;13818;52.156;5.382;2023-10-31T12:47:31;100040.16;;;14.83;100.00
26043;BME280;13818;52.156;5.382;2023-10-31T12:50:09;100044.00;;;15.03;100.00